sensor_id;sensor_type;location;lat;lon;timestamp;P1;durP1;ratioP1;P2;durP2;ratioP2
40611;SDS011;26317;44.894;20.286;2023-03-19T00:02:25;7.53;;;6.03;;
40611;SDS011;26317;44.894;20.286;2023-03-19T00:05:03;7.97;;;6.07;;
40611;SDS011;26317;44.894;20.286;2023-03-19T00:07:43;8.18;;;5.80;;
40611;SDS011;26317;44.894;20.286;2023-03-19T00:10:16;7.30;;;5.55;;
40611;SDS011;26317;44.894;20.286;2023-03-19T00:13:07;7.28;;;5.78;;
40611;SDS011;26317;44.894;20.286;2023-03-19T00:15:43;5.60;;;5.10;;
40611;SDS011;26317;44.894;20.286;2023-03-19T00:18:23;7.70;;;6.22;;
40611;SDS011;26317;44.894;20.286;2023-03-19T00:21:04;8.82;;;5.88;;
40611;SDS011;26317;44.894;20.286;2023-03-19T00:23:47;7.40;;;5.18;;
40611;SDS011;26317;44.894;20.286;2023-03-19T00:26:24;7.50;;;5.20;;
40611;SDS011;26317;44.894;20.286;2023-03-19T00:29:04;8.70;;;5.57;;
40611;SDS011;26317;44.894;20.286;2023-03-19T00:31:45;7.85;;;6.07;;
40611;SDS011;26317;44.894;20.286;2023-03-19T00:34:21;7.93;;;6.40;;
40611;SDS011;26317;44.894;20.286;2023-03-19T00:37:01;7.50;;;5.60;;
40611;SDS011;26317;44.894;20.286;2023-03-19T00:39:33;8.73;;;5.57;;
40611;SDS011;26317;44.894;20.286;2023-03-19T00:42:19;9.25;;;5.63;;
40611;SDS011;26317;44.894;20.286;2023-03-19T00:45:05;8.68;;;5.38;;
40611;SDS011;26317;44.894;20.286;2023-03-19T00:47:40;6.57;;;5.35;;
40611;SDS011;26317;44.894;20.286;2023-03-19T00:50:19;8.65;;;5.53;;
40611;SDS011;26317;44.894;20.286;2023-03-19T00:52:58;7.28;;;4.97;;
40611;SDS011;26317;44.894;20.286;2023-03-19T00:55:43;7.65;;;5.13;;
40611;SDS011;26317;44.894;20.286;2023-03-19T00:58:21;8.30;;;5.70;;
40611;SDS011;26317;44.894;20.286;2023-03-19T01:01:07;6.97;;;5.03;;
40611;SDS011;26317;44.894;20.286;2023-03-19T01:03:54;8.70;;;4.93;;
40611;SDS011;26317;44.894;20.286;2023-03-19T01:06:36;8.85;;;5.72;;
40611;SDS011;26317;44.894;20.286;2023-03-19T01:09:33;7.85;;;5.40;;
40611;SDS011;26317;44.894;20.286;2023-03-19T01:12:07;7.55;;;5.45;;
40611;SDS011;26317;44.894;20.286;2023-03-19T01:14:44;7.40;;;4.97;;
40611;SDS011;26317;44.894;20.286;2023-03-19T01:17:25;8.43;;;4.82;;
40611;SDS011;26317;44.894;20.286;2023-03-19T01:20:13;12.25;;;5.75;;
40611;SDS011;26317;44.894;20.286;2023-03-19T01:22:58;9.77;;;5.50;;
40611;SDS011;26317;44.894;20.286;2023-03-19T01:25:50;7.18;;;5.85;;
40611;SDS011;26317;44.894;20.286;2023-03-19T01:28:32;7.10;;;5.55;;
40611;SDS011;26317;44.894;20.286;2023-03-19T01:31:10;9.30;;;5.20;;
40611;SDS011;26317;44.894;20.286;2023-03-19T01:34:06;7.28;;;5.45;;
40611;SDS011;26317;44.894;20.286;2023-03-19T01:37:07;8.48;;;5.63;;
40611;SDS011;26317;44.894;20.286;2023-03-19T01:39:47;10.23;;;6.13;;
40611;SDS011;26317;44.894;20.286;2023-03-19T01:42:52;6.72;;;5.47;;
40611;SDS011;26317;44.894;20.286;2023-03-19T01:45:49;7.30;;;5.00;;
40611;SDS011;26317;44.894;20.286;2023-03-19T01:48:56;7.53;;;5.15;;
40611;SDS011;26317;44.894;20.286;2023-03-19T01:51:58;6.47;;;5.20;;
40611;SDS011;26317;44.894;20.286;2023-03-19T01:54:46;6.45;;;5.38;;
40611;SDS011;26317;44.894;20.286;2023-03-19T01:57:42;8.18;;;5.80;;
40611;SDS011;26317;44.894;20.286;2023-03-19T02:00:48;8.70;;;5.93;;
40611;SDS011;26317;44.894;20.286;2023-03-19T02:03:50;9.60;;;6.82;;
40611;SDS011;26317;44.894;20.286;2023-03-19T02:06:34;10.45;;;7.90;;
40611;SDS011;26317;44.894;20.286;2023-03-19T02:09:14;8.88;;;6.97;;
40611;SDS011;26317;44.894;20.286;2023-03-19T02:12:04;10.02;;;7.70;;
40611;SDS011;26317;44.894;20.286;2023-03-19T02:14:43;9.20;;;7.25;;
40611;SDS011;26317;44.894;20.286;2023-03-19T02:17:20;9.77;;;6.95;;
40611;SDS011;26317;44.894;20.286;2023-03-19T02:20:08;8.95;;;7.03;;
40611;SDS011;26317;44.894;20.286;2023-03-19T02:22:54;9.60;;;6.25;;
40611;SDS011;26317;44.894;20.286;2023-03-19T02:28:43;9.68;;;6.85;;
40611;SDS011;26317;44.894;20.286;2023-03-19T02:31:29;8.25;;;6.60;;
40611;SDS011;26317;44.894;20.286;2023-03-19T02:34:15;10.15;;;6.90;;
40611;SDS011;26317;44.894;20.286;2023-03-19T02:37:14;9.50;;;6.65;;
40611;SDS011;26317;44.894;20.286;2023-03-19T02:40:00;9.15;;;7.68;;
40611;SDS011;26317;44.894;20.286;2023-03-19T02:42:45;11.77;;;7.13;;
40611;SDS011;26317;44.894;20.286;2023-03-19T02:45:30;8.20;;;7.00;;
40611;SDS011;26317;44.894;20.286;2023-03-19T02:48:19;9.63;;;7.70;;
40611;SDS011;26317;44.894;20.286;2023-03-19T02:50:57;9.50;;;7.65;;
40611;SDS011;26317;44.894;20.286;2023-03-19T02:53:40;12.25;;;8.38;;
40611;SDS011;26317;44.894;20.286;2023-03-19T02:56:30;9.80;;;7.85;;
40611;SDS011;26317;44.894;20.286;2023-03-19T02:59:12;7.68;;;6.55;;
40611;SDS011;26317;44.894;20.286;2023-03-19T03:02:01;9.57;;;6.30;;
40611;SDS011;26317;44.894;20.286;2023-03-19T03:04:37;8.05;;;6.00;;
40611;SDS011;26317;44.894;20.286;2023-03-19T03:07:13;7.75;;;5.88;;
40611;SDS011;26317;44.894;20.286;2023-03-19T03:09:48;6.20;;;5.05;;
40611;SDS011;26317;44.894;20.286;2023-03-19T03:12:18;7.28;;;5.70;;
40611;SDS011;26317;44.894;20.286;2023-03-19T03:14:56;6.65;;;5.20;;
40611;SDS011;26317;44.894;20.286;2023-03-19T03:17:35;7.05;;;5.70;;
40611;SDS011;26317;44.894;20.286;2023-03-19T03:20:14;8.88;;;6.10;;
40611;SDS011;26317;44.894;20.286;2023-03-19T03:22:51;7.90;;;5.60;;
40611;SDS011;26317;44.894;20.286;2023-03-19T03:25:30;7.50;;;5.63;;
40611;SDS011;26317;44.894;20.286;2023-03-19T03:28:13;7.13;;;5.53;;
40611;SDS011;26317;44.894;20.286;2023-03-19T03:31:03;6.88;;;5.35;;
40611;SDS011;26317;44.894;20.286;2023-03-19T03:36:42;8.30;;;6.30;;
40611;SDS011;26317;44.894;20.286;2023-03-19T03:39:25;6.60;;;5.13;;
40611;SDS011;26317;44.894;20.286;2023-03-19T03:42:06;8.60;;;6.10;;
40611;SDS011;26317;44.894;20.286;2023-03-19T03:44:44;9.98;;;6.05;;
40611;SDS011;26317;44.894;20.286;2023-03-19T03:47:24;7.43;;;5.65;;
40611;SDS011;26317;44.894;20.286;2023-03-19T03:50:06;8.98;;;6.10;;
40611;SDS011;26317;44.894;20.286;2023-03-19T03:52:42;6.90;;;5.82;;
40611;SDS011;26317;44.894;20.286;2023-03-19T03:55:20;8.75;;;5.55;;
40611;SDS011;26317;44.894;20.286;2023-03-19T03:58:13;6.10;;;5.03;;
40611;SDS011;26317;44.894;20.286;2023-03-19T04:00:48;7.15;;;5.70;;
40611;SDS011;26317;44.894;20.286;2023-03-19T04:03:34;7.63;;;5.30;;
40611;SDS011;26317;44.894;20.286;2023-03-19T04:06:21;6.88;;;5.88;;
40611;SDS011;26317;44.894;20.286;2023-03-19T04:09:41;7.32;;;5.95;;
40611;SDS011;26317;44.894;20.286;2023-03-19T04:12:23;14.20;;;7.22;;
40611;SDS011;26317;44.894;20.286;2023-03-19T04:15:09;7.45;;;6.75;;
40611;SDS011;26317;44.894;20.286;2023-03-19T04:17:51;9.73;;;6.90;;
40611;SDS011;26317;44.894;20.286;2023-03-19T04:20:36;8.77;;;6.43;;
40611;SDS011;26317;44.894;20.286;2023-03-19T04:23:15;8.48;;;6.05;;
40611;SDS011;26317;44.894;20.286;2023-03-19T04:25:59;6.47;;;5.88;;
40611;SDS011;26317;44.894;20.286;2023-03-19T04:28:40;7.35;;;6.40;;
40611;SDS011;26317;44.894;20.286;2023-03-19T04:31:22;9.25;;;6.57;;
40611;SDS011;26317;44.894;20.286;2023-03-19T04:34:12;11.13;;;8.80;;
40611;SDS011;26317;44.894;20.286;2023-03-19T04:36:58;12.13;;;10.60;;
40611;SDS011;26317;44.894;20.286;2023-03-19T04:39:49;16.65;;;13.10;;
40611;SDS011;26317;44.894;20.286;2023-03-19T04:42:25;17.17;;;13.95;;
40611;SDS011;26317;44.894;20.286;2023-03-19T04:45:31;18.92;;;16.02;;
40611;SDS011;26317;44.894;20.286;2023-03-19T04:48:06;21.65;;;16.88;;
40611;SDS011;26317;44.894;20.286;2023-03-19T04:50:51;23.70;;;17.42;;
40611;SDS011;26317;44.894;20.286;2023-03-19T04:53:38;21.35;;;16.52;;
40611;SDS011;26317;44.894;20.286;2023-03-19T04:56:20;17.10;;;14.27;;
40611;SDS011;26317;44.894;20.286;2023-03-19T04:59:03;15.90;;;14.10;;
40611;SDS011;26317;44.894;20.286;2023-03-19T05:01:46;14.73;;;11.88;;
40611;SDS011;26317;44.894;20.286;2023-03-19T05:04:35;19.73;;;11.60;;
40611;SDS011;26317;44.894;20.286;2023-03-19T05:07:14;10.77;;;9.50;;
40611;SDS011;26317;44.894;20.286;2023-03-19T05:10:06;10.90;;;8.70;;
40611;SDS011;26317;44.894;20.286;2023-03-19T05:12:45;12.13;;;8.77;;
40611;SDS011;26317;44.894;20.286;2023-03-19T05:15:37;11.27;;;8.23;;
40611;SDS011;26317;44.894;20.286;2023-03-19T05:18:17;9.90;;;7.72;;
40611;SDS011;26317;44.894;20.286;2023-03-19T05:20:57;11.27;;;8.35;;
40611;SDS011;26317;44.894;20.286;2023-03-19T05:23:38;9.38;;;8.40;;
40611;SDS011;26317;44.894;20.286;2023-03-19T05:26:24;9.90;;;8.07;;
40611;SDS011;26317;44.894;20.286;2023-03-19T05:29:04;8.65;;;7.30;;
40611;SDS011;26317;44.894;20.286;2023-03-19T05:32:12;13.88;;;6.90;;
40611;SDS011;26317;44.894;20.286;2023-03-19T05:34:58;10.25;;;6.70;;
40611;SDS011;26317;44.894;20.286;2023-03-19T05:37:48;8.77;;;6.13;;
40611;SDS011;26317;44.894;20.286;2023-03-19T05:40:29;9.00;;;6.15;;
40611;SDS011;26317;44.894;20.286;2023-03-19T05:43:28;12.38;;;5.75;;
40611;SDS011;26317;44.894;20.286;2023-03-19T05:46:07;7.30;;;5.57;;
40611;SDS011;26317;44.894;20.286;2023-03-19T05:48:53;12.27;;;5.95;;
40611;SDS011;26317;44.894;20.286;2023-03-19T05:51:40;10.68;;;5.60;;
40611;SDS011;26317;44.894;20.286;2023-03-19T05:54:22;11.00;;;5.95;;
40611;SDS011;26317;44.894;20.286;2023-03-19T05:57:22;8.20;;;5.80;;
40611;SDS011;26317;44.894;20.286;2023-03-19T06:00:26;8.18;;;6.28;;
40611;SDS011;26317;44.894;20.286;2023-03-19T06:03:06;11.48;;;6.22;;
40611;SDS011;26317;44.894;20.286;2023-03-19T06:06:02;7.00;;;6.03;;
40611;SDS011;26317;44.894;20.286;2023-03-19T06:08:53;8.63;;;6.82;;
40611;SDS011;26317;44.894;20.286;2023-03-19T06:11:39;9.00;;;5.90;;
40611;SDS011;26317;44.894;20.286;2023-03-19T06:14:47;6.82;;;5.75;;
40611;SDS011;26317;44.894;20.286;2023-03-19T06:17:56;9.18;;;6.45;;
40611;SDS011;26317;44.894;20.286;2023-03-19T06:20:38;8.65;;;7.13;;
40611;SDS011;26317;44.894;20.286;2023-03-19T06:23:14;11.73;;;7.38;;
40611;SDS011;26317;44.894;20.286;2023-03-19T06:25:54;7.88;;;6.40;;
40611;SDS011;26317;44.894;20.286;2023-03-19T06:28:47;8.70;;;6.72;;
40611;SDS011;26317;44.894;20.286;2023-03-19T06:31:23;7.03;;;6.25;;
40611;SDS011;26317;44.894;20.286;2023-03-19T06:34:27;16.90;;;7.60;;
40611;SDS011;26317;44.894;20.286;2023-03-19T06:37:23;9.98;;;6.97;;
40611;SDS011;26317;44.894;20.286;2023-03-19T06:40:10;11.05;;;7.35;;
40611;SDS011;26317;44.894;20.286;2023-03-19T06:42:45;8.02;;;6.95;;
40611;SDS011;26317;44.894;20.286;2023-03-19T06:45:31;8.57;;;6.60;;
40611;SDS011;26317;44.894;20.286;2023-03-19T06:48:09;10.85;;;7.57;;
40611;SDS011;26317;44.894;20.286;2023-03-19T06:50:54;11.00;;;7.30;;
40611;SDS011;26317;44.894;20.286;2023-03-19T06:53:45;8.43;;;6.28;;
40611;SDS011;26317;44.894;20.286;2023-03-19T06:56:27;9.45;;;6.72;;
40611;SDS011;26317;44.894;20.286;2023-03-19T06:59:08;10.85;;;6.18;;
40611;SDS011;26317;44.894;20.286;2023-03-19T07:01:51;8.13;;;6.10;;
40611;SDS011;26317;44.894;20.286;2023-03-19T07:04:33;8.05;;;6.18;;
40611;SDS011;26317;44.894;20.286;2023-03-19T07:07:17;12.57;;;5.85;;
40611;SDS011;26317;44.894;20.286;2023-03-19T07:09:50;7.82;;;5.40;;
40611;SDS011;26317;44.894;20.286;2023-03-19T07:15:26;9.38;;;5.65;;
40611;SDS011;26317;44.894;20.286;2023-03-19T07:18:13;12.18;;;5.75;;
40611;SDS011;26317;44.894;20.286;2023-03-19T07:20:50;5.82;;;5.07;;
40611;SDS011;26317;44.894;20.286;2023-03-19T07:23:31;5.90;;;4.95;;
40611;SDS011;26317;44.894;20.286;2023-03-19T07:26:12;6.55;;;5.15;;
40611;SDS011;26317;44.894;20.286;2023-03-19T07:28:49;6.07;;;4.97;;
40611;SDS011;26317;44.894;20.286;2023-03-19T07:31:33;5.35;;;4.57;;
40611;SDS011;26317;44.894;20.286;2023-03-19T07:34:13;6.82;;;5.15;;
40611;SDS011;26317;44.894;20.286;2023-03-19T07:36:54;10.20;;;5.53;;
40611;SDS011;26317;44.894;20.286;2023-03-19T07:39:42;8.88;;;6.32;;
40611;SDS011;26317;44.894;20.286;2023-03-19T07:42:22;8.48;;;6.10;;
40611;SDS011;26317;44.894;20.286;2023-03-19T07:45:02;10.77;;;6.55;;
40611;SDS011;26317;44.894;20.286;2023-03-19T07:47:43;9.57;;;5.55;;
40611;SDS011;26317;44.894;20.286;2023-03-19T07:50:25;9.48;;;6.18;;
40611;SDS011;26317;44.894;20.286;2023-03-19T07:53:10;9.43;;;5.68;;
40611;SDS011;26317;44.894;20.286;2023-03-19T07:55:58;6.97;;;6.00;;
40611;SDS011;26317;44.894;20.286;2023-03-19T07:58:41;8.82;;;6.13;;
40611;SDS011;26317;44.894;20.286;2023-03-19T08:01:16;7.03;;;5.25;;
40611;SDS011;26317;44.894;20.286;2023-03-19T08:03:54;7.75;;;5.32;;
40611;SDS011;26317;44.894;20.286;2023-03-19T08:06:30;11.60;;;5.40;;
40611;SDS011;26317;44.894;20.286;2023-03-19T08:09:15;9.40;;;6.03;;
40611;SDS011;26317;44.894;20.286;2023-03-19T08:11:54;9.93;;;6.07;;
40611;SDS011;26317;44.894;20.286;2023-03-19T08:14:39;8.68;;;5.60;;
40611;SDS011;26317;44.894;20.286;2023-03-19T08:17:14;9.25;;;5.55;;
40611;SDS011;26317;44.894;20.286;2023-03-19T08:19:49;5.68;;;5.00;;
40611;SDS011;26317;44.894;20.286;2023-03-19T08:22:28;6.47;;;5.57;;
40611;SDS011;26317;44.894;20.286;2023-03-19T08:25:13;6.90;;;5.63;;
40611;SDS011;26317;44.894;20.286;2023-03-19T08:27:52;7.75;;;5.30;;
40611;SDS011;26317;44.894;20.286;2023-03-19T08:30:25;6.57;;;5.10;;
40611;SDS011;26317;44.894;20.286;2023-03-19T08:33:21;9.02;;;5.60;;
40611;SDS011;26317;44.894;20.286;2023-03-19T08:36:04;6.82;;;5.22;;
40611;SDS011;26317;44.894;20.286;2023-03-19T08:39:02;8.38;;;5.20;;
40611;SDS011;26317;44.894;20.286;2023-03-19T08:41:35;7.22;;;5.57;;
40611;SDS011;26317;44.894;20.286;2023-03-19T08:44:11;7.97;;;5.60;;
40611;SDS011;26317;44.894;20.286;2023-03-19T08:46:46;7.95;;;5.65;;
40611;SDS011;26317;44.894;20.286;2023-03-19T08:49:20;5.65;;;4.78;;
40611;SDS011;26317;44.894;20.286;2023-03-19T08:51:57;9.68;;;5.80;;
40611;SDS011;26317;44.894;20.286;2023-03-19T08:54:32;5.85;;;5.07;;
40611;SDS011;26317;44.894;20.286;2023-03-19T08:57:13;8.70;;;5.45;;
40611;SDS011;26317;44.894;20.286;2023-03-19T08:59:48;7.50;;;5.35;;
40611;SDS011;26317;44.894;20.286;2023-03-19T09:02:31;6.10;;;5.05;;
40611;SDS011;26317;44.894;20.286;2023-03-19T09:05:18;6.22;;;4.93;;
40611;SDS011;26317;44.894;20.286;2023-03-19T09:07:59;7.32;;;4.90;;
40611;SDS011;26317;44.894;20.286;2023-03-19T09:10:32;10.68;;;5.03;;
40611;SDS011;26317;44.894;20.286;2023-03-19T09:13:23;10.18;;;5.25;;
40611;SDS011;26317;44.894;20.286;2023-03-19T09:16:09;10.75;;;5.18;;
40611;SDS011;26317;44.894;20.286;2023-03-19T09:18:56;7.95;;;5.90;;
40611;SDS011;26317;44.894;20.286;2023-03-19T09:21:43;9.05;;;5.75;;
40611;SDS011;26317;44.894;20.286;2023-03-19T09:24:33;7.95;;;5.28;;
40611;SDS011;26317;44.894;20.286;2023-03-19T09:27:20;11.75;;;5.18;;
40611;SDS011;26317;44.894;20.286;2023-03-19T09:30:04;9.10;;;5.53;;
40611;SDS011;26317;44.894;20.286;2023-03-19T09:32:47;7.70;;;5.78;;
40611;SDS011;26317;44.894;20.286;2023-03-19T09:35:36;8.75;;;6.47;;
40611;SDS011;26317;44.894;20.286;2023-03-19T09:38:16;7.97;;;6.00;;
40611;SDS011;26317;44.894;20.286;2023-03-19T09:40:51;7.30;;;5.53;;
40611;SDS011;26317;44.894;20.286;2023-03-19T09:43:59;8.05;;;5.82;;
40611;SDS011;26317;44.894;20.286;2023-03-19T09:46:38;6.90;;;5.75;;
40611;SDS011;26317;44.894;20.286;2023-03-19T09:49:33;7.82;;;6.07;;
40611;SDS011;26317;44.894;20.286;2023-03-19T09:52:29;8.82;;;5.70;;
40611;SDS011;26317;44.894;20.286;2023-03-19T09:55:19;8.25;;;6.47;;
40611;SDS011;26317;44.894;20.286;2023-03-19T09:58:14;10.40;;;6.65;;
40611;SDS011;26317;44.894;20.286;2023-03-19T10:00:54;7.05;;;5.82;;
40611;SDS011;26317;44.894;20.286;2023-03-19T10:03:37;8.13;;;5.88;;
40611;SDS011;26317;44.894;20.286;2023-03-19T10:06:27;9.07;;;5.82;;
40611;SDS011;26317;44.894;20.286;2023-03-19T10:12:30;9.02;;;6.22;;
40611;SDS011;26317;44.894;20.286;2023-03-19T10:15:19;7.68;;;5.80;;
40611;SDS011;26317;44.894;20.286;2023-03-19T10:18:08;8.43;;;6.10;;
40611;SDS011;26317;44.894;20.286;2023-03-19T10:20:53;8.20;;;6.18;;
40611;SDS011;26317;44.894;20.286;2023-03-19T10:23:44;6.97;;;5.50;;
40611;SDS011;26317;44.894;20.286;2023-03-19T10:26:31;9.80;;;6.28;;
40611;SDS011;26317;44.894;20.286;2023-03-19T10:29:09;6.97;;;5.70;;
40611;SDS011;26317;44.894;20.286;2023-03-19T10:31:55;6.80;;;5.82;;
40611;SDS011;26317;44.894;20.286;2023-03-19T10:34:40;7.13;;;5.85;;
40611;SDS011;26317;44.894;20.286;2023-03-19T10:37:22;8.50;;;5.13;;
40611;SDS011;26317;44.894;20.286;2023-03-19T10:40:00;8.52;;;5.63;;
40611;SDS011;26317;44.894;20.286;2023-03-19T10:42:49;7.57;;;5.32;;
40611;SDS011;26317;44.894;20.286;2023-03-19T10:45:44;5.40;;;4.88;;
40611;SDS011;26317;44.894;20.286;2023-03-19T10:48:24;7.70;;;6.13;;
40611;SDS011;26317;44.894;20.286;2023-03-19T10:51:05;9.60;;;7.05;;
40611;SDS011;26317;44.894;20.286;2023-03-19T10:53:54;8.57;;;5.35;;
40611;SDS011;26317;44.894;20.286;2023-03-19T10:56:50;8.75;;;5.57;;
40611;SDS011;26317;44.894;20.286;2023-03-19T10:59:37;8.65;;;7.72;;
40611;SDS011;26317;44.894;20.286;2023-03-19T11:02:17;6.38;;;5.13;;
40611;SDS011;26317;44.894;20.286;2023-03-19T11:05:14;6.60;;;4.82;;
40611;SDS011;26317;44.894;20.286;2023-03-19T11:07:58;6.65;;;5.20;;
40611;SDS011;26317;44.894;20.286;2023-03-19T11:11:03;8.02;;;5.55;;
40611;SDS011;26317;44.894;20.286;2023-03-19T11:13:58;25.25;;;9.43;;
40611;SDS011;26317;44.894;20.286;2023-03-19T11:17:01;8.45;;;5.47;;
40611;SDS011;26317;44.894;20.286;2023-03-19T11:19:42;6.97;;;4.78;;
40611;SDS011;26317;44.894;20.286;2023-03-19T11:22:30;9.45;;;5.55;;
40611;SDS011;26317;44.894;20.286;2023-03-19T11:25:15;7.80;;;5.13;;
40611;SDS011;26317;44.894;20.286;2023-03-19T11:27:57;7.63;;;5.82;;
40611;SDS011;26317;44.894;20.286;2023-03-19T11:30:45;6.13;;;4.70;;
40611;SDS011;26317;44.894;20.286;2023-03-19T11:36:41;5.03;;;4.50;;
40611;SDS011;26317;44.894;20.286;2023-03-19T11:39:36;7.60;;;4.75;;
40611;SDS011;26317;44.894;20.286;2023-03-19T11:42:38;6.97;;;5.30;;
40611;SDS011;26317;44.894;20.286;2023-03-19T11:45:26;6.45;;;4.80;;
40611;SDS011;26317;44.894;20.286;2023-03-19T11:48:16;8.57;;;4.90;;
40611;SDS011;26317;44.894;20.286;2023-03-19T11:51:03;7.82;;;5.32;;
40611;SDS011;26317;44.894;20.286;2023-03-19T11:53:55;9.02;;;5.25;;
40611;SDS011;26317;44.894;20.286;2023-03-19T11:56:54;6.97;;;5.15;;
40611;SDS011;26317;44.894;20.286;2023-03-19T11:59:32;5.80;;;5.20;;
40611;SDS011;26317;44.894;20.286;2023-03-19T12:05:53;14.63;;;10.85;;
40611;SDS011;26317;44.894;20.286;2023-03-19T12:08:41;5.40;;;4.72;;
40611;SDS011;26317;44.894;20.286;2023-03-19T12:11:24;12.32;;;9.05;;
40611;SDS011;26317;44.894;20.286;2023-03-19T12:14:16;6.88;;;5.30;;
40611;SDS011;26317;44.894;20.286;2023-03-19T12:17:06;8.18;;;6.25;;
40611;SDS011;26317;44.894;20.286;2023-03-19T12:20:09;6.22;;;4.82;;
40611;SDS011;26317;44.894;20.286;2023-03-19T12:23:10;4.90;;;4.32;;
40611;SDS011;26317;44.894;20.286;2023-03-19T12:25:54;8.98;;;5.93;;
40611;SDS011;26317;44.894;20.286;2023-03-19T12:28:45;7.00;;;4.28;;
40611;SDS011;26317;44.894;20.286;2023-03-19T12:34:44;5.88;;;4.90;;
40611;SDS011;26317;44.894;20.286;2023-03-19T12:37:30;8.18;;;5.18;;
40611;SDS011;26317;44.894;20.286;2023-03-19T12:40:14;6.20;;;5.00;;
40611;SDS011;26317;44.894;20.286;2023-03-19T12:43:01;8.57;;;4.88;;
40611;SDS011;26317;44.894;20.286;2023-03-19T12:45:54;7.05;;;4.45;;
40611;SDS011;26317;44.894;20.286;2023-03-19T12:48:41;6.72;;;4.60;;
40611;SDS011;26317;44.894;20.286;2023-03-19T12:51:31;7.57;;;5.28;;
40611;SDS011;26317;44.894;20.286;2023-03-19T12:54:11;7.43;;;4.78;;
40611;SDS011;26317;44.894;20.286;2023-03-19T12:56:57;6.93;;;4.43;;
40611;SDS011;26317;44.894;20.286;2023-03-19T12:59:41;5.35;;;4.30;;
40611;SDS011;26317;44.894;20.286;2023-03-19T13:02:26;6.72;;;4.82;;
40611;SDS011;26317;44.894;20.286;2023-03-19T13:05:16;7.53;;;4.18;;
40611;SDS011;26317;44.894;20.286;2023-03-19T13:08:05;7.28;;;4.63;;
40611;SDS011;26317;44.894;20.286;2023-03-19T13:10:55;7.60;;;5.40;;
40611;SDS011;26317;44.894;20.286;2023-03-19T13:13:45;6.38;;;4.70;;
40611;SDS011;26317;44.894;20.286;2023-03-19T13:16:33;7.35;;;5.70;;
40611;SDS011;26317;44.894;20.286;2023-03-19T13:19:28;10.43;;;8.65;;
40611;SDS011;26317;44.894;20.286;2023-03-19T13:22:09;5.70;;;5.10;;
40611;SDS011;26317;44.894;20.286;2023-03-19T13:24:46;13.68;;;6.95;;
40611;SDS011;26317;44.894;20.286;2023-03-19T13:27:21;7.85;;;5.38;;
40611;SDS011;26317;44.894;20.286;2023-03-19T13:30:17;5.45;;;4.60;;
40611;SDS011;26317;44.894;20.286;2023-03-19T13:33:03;7.32;;;4.82;;
40611;SDS011;26317;44.894;20.286;2023-03-19T13:35:51;8.18;;;4.50;;
40611;SDS011;26317;44.894;20.286;2023-03-19T13:38:56;8.30;;;5.13;;
40611;SDS011;26317;44.894;20.286;2023-03-19T13:41:50;6.78;;;5.35;;
40611;SDS011;26317;44.894;20.286;2023-03-19T13:44:38;6.10;;;4.95;;
40611;SDS011;26317;44.894;20.286;2023-03-19T13:50:23;8.63;;;4.93;;
40611;SDS011;26317;44.894;20.286;2023-03-19T13:53:22;5.82;;;4.43;;
40611;SDS011;26317;44.894;20.286;2023-03-19T13:56:14;5.63;;;4.78;;
40611;SDS011;26317;44.894;20.286;2023-03-19T14:05:22;8.60;;;5.03;;
40611;SDS011;26317;44.894;20.286;2023-03-19T14:08:16;5.45;;;4.43;;
40611;SDS011;26317;44.894;20.286;2023-03-19T14:10:59;6.13;;;5.22;;
40611;SDS011;26317;44.894;20.286;2023-03-19T14:13:46;4.93;;;4.43;;
40611;SDS011;26317;44.894;20.286;2023-03-19T14:16:29;5.25;;;4.57;;
40611;SDS011;26317;44.894;20.286;2023-03-19T14:19:23;5.85;;;4.53;;
40611;SDS011;26317;44.894;20.286;2023-03-19T14:22:16;8.35;;;4.97;;
40611;SDS011;26317;44.894;20.286;2023-03-19T14:25:20;7.18;;;5.35;;
40611;SDS011;26317;44.894;20.286;2023-03-19T14:28:07;6.03;;;4.75;;
40611;SDS011;26317;44.894;20.286;2023-03-19T14:30:46;4.80;;;3.83;;
40611;SDS011;26317;44.894;20.286;2023-03-19T14:33:28;7.95;;;6.03;;
40611;SDS011;26317;44.894;20.286;2023-03-19T14:36:18;5.07;;;4.43;;
40611;SDS011;26317;44.894;20.286;2023-03-19T14:39:10;6.43;;;4.88;;
40611;SDS011;26317;44.894;20.286;2023-03-19T14:41:59;7.40;;;4.63;;
40611;SDS011;26317;44.894;20.286;2023-03-19T14:47:59;11.55;;;7.03;;
40611;SDS011;26317;44.894;20.286;2023-03-19T14:50:52;7.07;;;4.82;;
40611;SDS011;26317;44.894;20.286;2023-03-19T14:54:15;6.18;;;4.50;;
40611;SDS011;26317;44.894;20.286;2023-03-19T14:57:04;5.70;;;5.00;;
40611;SDS011;26317;44.894;20.286;2023-03-19T14:59:53;12.55;;;8.95;;
40611;SDS011;26317;44.894;20.286;2023-03-19T15:02:45;9.65;;;5.43;;
40611;SDS011;26317;44.894;20.286;2023-03-19T15:05:27;5.55;;;4.63;;
40611;SDS011;26317;44.894;20.286;2023-03-19T15:08:09;5.78;;;4.75;;
40611;SDS011;26317;44.894;20.286;2023-03-19T15:11:08;7.30;;;5.20;;
40611;SDS011;26317;44.894;20.286;2023-03-19T15:14:09;6.93;;;5.00;;
40611;SDS011;26317;44.894;20.286;2023-03-19T15:17:28;8.38;;;7.47;;
40611;SDS011;26317;44.894;20.286;2023-03-19T15:20:45;6.13;;;5.53;;
40611;SDS011;26317;44.894;20.286;2023-03-19T15:23:34;8.15;;;4.72;;
40611;SDS011;26317;44.894;20.286;2023-03-19T15:26:15;7.50;;;4.82;;
40611;SDS011;26317;44.894;20.286;2023-03-19T15:29:11;4.68;;;4.18;;
40611;SDS011;26317;44.894;20.286;2023-03-19T15:31:53;6.60;;;5.15;;
40611;SDS011;26317;44.894;20.286;2023-03-19T15:34:40;6.00;;;4.25;;
40611;SDS011;26317;44.894;20.286;2023-03-19T15:37:39;5.93;;;4.80;;
40611;SDS011;26317;44.894;20.286;2023-03-19T15:42:53;9.32;;;4.90;;
40611;SDS011;26317;44.894;20.286;2023-03-19T15:45:37;6.57;;;4.78;;
40611;SDS011;26317;44.894;20.286;2023-03-19T15:48:23;5.68;;;4.95;;
40611;SDS011;26317;44.894;20.286;2023-03-19T15:50:59;7.80;;;5.25;;
40611;SDS011;26317;44.894;20.286;2023-03-19T15:53:40;10.73;;;5.13;;
40611;SDS011;26317;44.894;20.286;2023-03-19T15:56:32;7.38;;;4.47;;
40611;SDS011;26317;44.894;20.286;2023-03-19T15:59:16;6.35;;;4.13;;
40611;SDS011;26317;44.894;20.286;2023-03-19T16:01:50;6.05;;;5.20;;
40611;SDS011;26317;44.894;20.286;2023-03-19T16:04:30;7.47;;;5.45;;
40611;SDS011;26317;44.894;20.286;2023-03-19T16:07:44;5.95;;;4.85;;
40611;SDS011;26317;44.894;20.286;2023-03-19T16:10:37;8.07;;;4.35;;
40611;SDS011;26317;44.894;20.286;2023-03-19T16:13:22;6.38;;;5.25;;
40611;SDS011;26317;44.894;20.286;2023-03-19T16:16:14;8.30;;;5.07;;
40611;SDS011;26317;44.894;20.286;2023-03-19T16:18:53;6.72;;;5.00;;
40611;SDS011;26317;44.894;20.286;2023-03-19T16:21:42;8.55;;;5.57;;
40611;SDS011;26317;44.894;20.286;2023-03-19T16:24:27;7.63;;;5.10;;
40611;SDS011;26317;44.894;20.286;2023-03-19T16:27:14;11.77;;;5.85;;
40611;SDS011;26317;44.894;20.286;2023-03-19T16:30:00;8.85;;;5.97;;
40611;SDS011;26317;44.894;20.286;2023-03-19T16:32:55;11.45;;;5.63;;
40611;SDS011;26317;44.894;20.286;2023-03-19T16:35:39;8.95;;;5.45;;
40611;SDS011;26317;44.894;20.286;2023-03-19T16:38:19;19.50;;;8.23;;
40611;SDS011;26317;44.894;20.286;2023-03-19T16:43:51;42.60;;;26.00;;
40611;SDS011;26317;44.894;20.286;2023-03-19T16:46:34;44.90;;;23.33;;
40611;SDS011;26317;44.894;20.286;2023-03-19T16:49:16;43.10;;;28.67;;
40611;SDS011;26317;44.894;20.286;2023-03-19T16:51:56;25.13;;;15.38;;
40611;SDS011;26317;44.894;20.286;2023-03-19T16:54:38;16.38;;;10.93;;
40611;SDS011;26317;44.894;20.286;2023-03-19T16:57:16;18.85;;;11.70;;
40611;SDS011;26317;44.894;20.286;2023-03-19T16:59:56;21.13;;;14.82;;
40611;SDS011;26317;44.894;20.286;2023-03-19T17:02:32;25.75;;;16.38;;